Time;durP1;ratioP1;P1;durP2;ratioP2;P2;SDS_P1;SDS_P2;PMS_P1;PMS_P2;Temp;Humidity;BMP_temperature;BMP_pressure;BME280_temperature;BME280_humidity;BME280_pressure;Samples;Min_cycle;Max_cycle;Signal;HPM_P1;HPM_P2
2021/12/02 00:00:27;;;;;;;;;;;;;;;;;;2056180;28;20368;-50
2021/12/02 00:01:28;;;;;;;;;;;;;;;;;;2057708;28;19926;-46
2021/12/02 00:02:29;;;;;;;;;;;;;;;;;;2055168;28;19933;-46
2021/12/02 00:03:29;;;;;;;;;;;;;;;;;;2060639;28;20445;-47
2021/12/02 00:04:33;;;;;;;;;;;;;;;;;;2065720;28;19973;-46
2021/12/02 00:05:34;;;;;;;;;;;;;;;;;;2055958;28;19926;-46
2021/12/02 00:06:36;;;;;;;;;;;;;;;;;;2057615;28;19965;-46
2021/12/02 00:07:37;;;;;;;;;;;;;;;;;;2057469;28;19948;-46
2021/12/02 00:08:38;;;;;;;;;;;;;;;;;;2053841;28;19930;-49
2021/12/02 00:09:39;;;;;;;;;;;;;;;;;;2057593;28;19927;-46
2021/12/02 00:10:41;;;;;;;;;;;;;;;;;;2057687;28;19968;-49
2021/12/02 00:11:42;;;;;;;;;;;;;;;;;;2053952;28;20028;-47
2021/12/02 00:12:42;;;;;;;;;;;;;;;;;;2057619;28;20606;-46
2021/12/02 00:13:52;;;;;;;;;;;;;;;;;;2057390;28;19941;-46
2021/12/02 00:14:53;;;;;;;;;;;;;;;;;;2055091;28;19965;-48
2021/12/02 00:15:56;;;;;;;;;;;;;;;;;;2057296;28;20250;-46
2021/12/02 00:17:06;;;;;;;;;;;;;;;;;;2056714;28;20003;-49
2021/12/02 00:18:30;;;;;;;;;;;;;;;;;;2056160;28;19989;-46
2021/12/02 00:21:05;;;;;;;;;;;;;;;;;;2054661;28;20020;-47
2021/12/02 00:22:06;;;;;;;;;;;;;;;;;;2057387;28;20009;-42
2021/12/02 00:23:07;;;;;;;;;;;;;;;;;;2056493;28;21273;-42
2021/12/02 00:24:08;;;;;;;;;;;;;;;;;;2050684;28;19927;-42
2021/12/02 00:25:09;;;;;;;;;;;;;;;;;;2049480;28;19933;-42
2021/12/02 00:26:10;;;;;;;;;;;;;;;;;;2053000;28;19965;-42
2021/12/02 00:27:10;;;;;;;;;;;;;;;;;;2056025;28;19926;-42
2021/12/02 00:28:11;;;;;;;;;;;;;;;;;;2057515;28;20001;-42
2021/12/02 00:29:12;;;;;;;;;;;;;;;;;;2055380;28;20288;-42
2021/12/02 00:30:13;;;;;;;;;;;;;;;;;;2057191;28;19973;-42
2021/12/02 00:31:14;;;;;;;;;;;;;;;;;;2057465;28;19926;-43
2021/12/02 00:32:15;;;;;;;;;;;;;;;;;;2053892;28;20009;-42
2021/12/02 00:33:15;;;;;;;;;;;;;;;;;;2057340;28;20438;-42
2021/12/02 00:34:17;;;;;;;;;;;;;;;;;;2057343;28;19926;-42
2021/12/02 00:35:18;;;;;;;;;;;;;;;;;;2055048;28;19973;-42
2021/12/02 00:36:19;;;;;;;;;;;;;;;;;;2056765;28;19996;-42
2021/12/02 00:37:21;;;;;;;;;;;;;;;;;;2057302;28;19926;-42
2021/12/02 00:38:22;;;;;;;;;;;;;;;;;;2054995;28;20285;-42
2021/12/02 00:39:23;;;;;;;;;;;;;;;;;;2057484;28;20017;-46
2021/12/02 00:40:23;;;;;;;;;;;;;;;;;;2057325;28;19926;-49
2021/12/02 00:41:24;;;;;;;;;;;;;;;;;;2054942;28;19929;-47
2021/12/02 00:42:25;;;;;;;;;;;;;;;;;;2057335;28;19934;-46
2021/12/02 00:43:26;;;;;;;;;;;;;;;;;;2056396;28;19973;-46
2021/12/02 00:44:27;;;;;;;;;;;;;;;;;;2054567;28;20446;-47
2021/12/02 00:45:28;;;;;;;;;;;;;;;;;;2057391;28;19933;-48
2021/12/02 00:46:31;;;;;;;;;;;;;;;;;;2056849;28;20268;-49
2021/12/02 00:47:33;;;;;;;;;;;;;;;;;;2053790;28;20032;-47
2021/12/02 00:48:33;;;;;;;;;;;;;;;;;;2057083;28;20025;-48
2021/12/02 00:49:34;;;;;;;;;;;;;;;;;;2056767;28;19933;-50
2021/12/02 00:50:35;;;;;;;;;;;;;;;;;;2055503;28;20415;-48
2021/12/02 00:51:36;;;;;;;;;;;;;;;;;;2057362;28;19969;-47
2021/12/02 00:52:37;;;;;;;;;;;;;;;;;;2056371;28;19926;-48
2021/12/02 00:53:38;;;;;;;;;;;;;;;;;;2055965;28;19977;-49
2021/12/02 00:54:39;;;;;;;;;;;;;;;;;;2057157;28;19926;-48
2021/12/02 00:55:39;;;;;;;;;;;;;;;;;;2056456;28;19953;-45
2021/12/02 00:56:40;;;;;;;;;;;;;;;;;;2055799;28;20024;-46
2021/12/02 00:57:41;;;;;;;;;;;;;;;;;;2056914;28;19933;-49
2021/12/02 00:58:43;;;;;;;;;;;;;;;;;;2054733;28;20380;-46
2021/12/02 00:59:44;;;;;;;;;;;;;;;;;;2050506;28;20293;-45
2021/12/02 01:00:45;;;;;;;;;;;;;;;;;;2049296;28;20013;-49
2021/12/02 01:01:48;;;;;;;;;;;;;;;;;;2051769;28;19930;-47
2021/12/02 01:02:48;;;;;;;;;;;;;;;;;;2055909;28;19930;-46
2021/12/02 01:03:50;;;;;;;;;;;;;;;;;;2065216;28;19932;-49
2021/12/02 01:04:51;;;;;;;;;;;;;;;;;;2057609;28;20054;-45
2021/12/02 01:05:51;;;;;;;;;;;;;;;;;;2057038;28;20320;-45
2021/12/02 01:06:52;;;;;;;;;;;;;;;;;;2057337;28;20147;-47
2021/12/02 01:07:53;;;;;;;;;;;;;;;;;;2055498;28;19940;-46
2021/12/02 01:08:54;;;;;;;;;;;;;;;;;;2049192;28;19926;-47
2021/12/02 01:09:55;;;;;;;;;;;;;;;;;;2049199;28;20365;-49
2021/12/02 01:10:56;;;;;;;;;;;;;;;;;;2053550;28;19933;-46
2021/12/02 01:11:57;;;;;;;;;;;;;;;;;;2057222;28;19926;-47
2021/12/02 01:12:58;;;;;;;;;;;;;;;;;;2057108;28;19930;-46
2021/12/02 01:13:59;;;;;;;;;;;;;;;;;;2054811;28;20446;-46
2021/12/02 01:15:00;;;;;;;;;;;;;;;;;;2057115;28;19933;-46
2021/12/02 01:16:01;;;;;;;;;;;;;;;;;;2057171;28;19926;-47
2021/12/02 01:17:02;;;;;;;;;;;;;;;;;;2053952;28;19930;-46
2021/12/02 01:18:03;;;;;;;;;;;;;;;;;;2057439;28;19930;-42
2021/12/02 01:19:03;;;;;;;;;;;;;;;;;;2056098;28;19930;-42
2021/12/02 01:20:04;;;;;;;;;;;;;;;;;;2055023;28;19926;-43
2021/12/02 01:21:05;;;;;;;;;;;;;;;;;;2057226;28;20403;-42
2021/12/02 01:22:06;;;;;;;;;;;;;;;;;;2056642;28;19973;-42
2021/12/02 01:23:07;;;;;;;;;;;;;;;;;;2055212;28;19930;-42
2021/12/02 01:24:08;;;;;;;;;;;;;;;;;;2057054;28;19932;-42
2021/12/02 01:25:08;;;;;;;;;;;;;;;;;;2056449;28;19926;-42
2021/12/02 01:26:09;;;;;;;;;;;;;;;;;;2055437;28;19926;-42
2021/12/02 01:27:10;;;;;;;;;;;;;;;;;;2057155;28;19926;-42
2021/12/02 01:28:11;;;;;;;;;;;;;;;;;;2056487;28;19926;-42
2021/12/02 01:29:12;;;;;;;;;;;;;;;;;;2054629;28;19926;-42
2021/12/02 01:30:13;;;;;;;;;;;;;;;;;;2057185;28;19934;-43
2021/12/02 01:31:13;;;;;;;;;;;;;;;;;;2056304;28;19926;-47
2021/12/02 01:32:14;;;;;;;;;;;;;;;;;;2054672;28;19926;-46
2021/12/02 01:33:15;;;;;;;;;;;;;;;;;;2057257;28;19933;-47
2021/12/02 01:34:16;;;;;;;;;;;;;;;;;;2056094;28;20057;-49
2021/12/02 01:35:17;;;;;;;;;;;;;;;;;;2054927;28;19930;-45
2021/12/02 01:36:18;;;;;;;;;;;;;;;;;;2057005;28;20447;-46
2021/12/02 01:37:19;;;;;;;;;;;;;;;;;;2055333;28;19954;-46
2021/12/02 01:38:20;;;;;;;;;;;;;;;;;;2055526;28;19930;-46
2021/12/02 01:39:21;;;;;;;;;;;;;;;;;;2057116;28;19926;-46
2021/12/02 01:40:21;;;;;;;;;;;;;;;;;;2054625;28;19996;-49
2021/12/02 01:41:22;;;;;;;;;;;;;;;;;;2056295;28;19933;-47
2021/12/02 01:42:24;;;;;;;;;;;;;;;;;;2056856;28;20000;-47
2021/12/02 01:43:25;;;;;;;;;;;;;;;;;;2054980;28;20057;-46
2021/12/02 01:44:25;;;;;;;;;;;;;;;;;;2056878;28;20387;-46
2021/12/02 01:45:26;;;;;;;;;;;;;;;;;;2056963;28;19926;-46
2021/12/02 01:46:28;;;;;;;;;;;;;;;;;;2053899;28;20276;-47
2021/12/02 01:47:31;;;;;;;;;;;;;;;;;;2048976;28;20097;-46
2021/12/02 01:48:32;;;;;;;;;;;;;;;;;;2048906;28;20021;-45
2021/12/02 01:49:36;;;;;;;;;;;;;;;;;;2053732;28;20412;-47
2021/12/02 01:50:37;;;;;;;;;;;;;;;;;;2057083;28;20013;-47
2021/12/02 01:51:38;;;;;;;;;;;;;;;;;;2057084;28;20335;-46
2021/12/02 01:52:38;;;;;;;;;;;;;;;;;;2054992;28;20017;-46
2021/12/02 01:53:39;;;;;;;;;;;;;;;;;;2056935;28;19969;-47
2021/12/02 01:54:40;;;;;;;;;;;;;;;;;;2056471;28;19933;-47
2021/12/02 01:55:41;;;;;;;;;;;;;;;;;;2054025;28;19934;-49
2021/12/02 01:56:42;;;;;;;;;;;;;;;;;;2057079;28;19930;-46
2021/12/02 01:57:43;;;;;;;;;;;;;;;;;;2055276;28;20299;-47
2021/12/02 01:58:43;;;;;;;;;;;;;;;;;;2054357;28;19937;-48
2021/12/02 01:59:44;;;;;;;;;;;;;;;;;;2058374;28;19926;-50
2021/12/02 02:00:45;;;;;;;;;;;;;;;;;;2057673;28;19954;-46
2021/12/02 02:01:47;;;;;;;;;;;;;;;;;;2056798;28;20051;-42
2021/12/02 02:02:48;;;;;;;;;;;;;;;;;;2057263;28;19926;-42
2021/12/02 02:03:49;;;;;;;;;;;;;;;;;;2062831;28;19930;-42
2021/12/02 02:04:50;;;;;;;;;;;;;;;;;;2056493;28;19926;-43
2021/12/02 02:05:50;;;;;;;;;;;;;;;;;;2058110;28;20315;-43
2021/12/02 02:06:51;;;;;;;;;;;;;;;;;;2057435;28;19996;-42
2021/12/02 02:07:53;;;;;;;;;;;;;;;;;;2052385;28;20093;-42
2021/12/02 02:08:53;;;;;;;;;;;;;;;;;;2050210;29;20348;-43
2021/12/02 02:09:54;;;;;;;;;;;;;;;;;;2053118;28;19942;-43
2021/12/02 02:10:55;;;;;;;;;;;;;;;;;;2056884;28;19965;-43
2021/12/02 02:11:56;;;;;;;;;;;;;;;;;;2058681;28;19965;-42
2021/12/02 02:12:58;;;;;;;;;;;;;;;;;;2055079;28;19973;-43
2021/12/02 02:13:59;;;;;;;;;;;;;;;;;;2057982;28;20016;-42
2021/12/02 02:15:00;;;;;;;;;;;;;;;;;;2057966;28;19993;-42
2021/12/02 02:16:01;;;;;;;;;;;;;;;;;;2056108;28;20364;-43
2021/12/02 02:17:08;;;;;;;;;;;;;;;;;;2058045;28;19926;-42
2021/12/02 02:18:13;;;;;;;;;;;;;;;;;;2058237;28;20414;-43
2021/12/02 02:19:14;;;;;;;;;;;;;;;;;;2054665;28;19930;-43
2021/12/02 02:20:15;;;;;;;;;;;;;;;;;;2058159;28;20276;-43
2021/12/02 02:21:17;;;;;;;;;;;;;;;;;;2058421;28;19966;-42
2021/12/02 02:22:21;;;;;;;;;;;;;;;;;;2053682;28;20092;-43
2021/12/02 02:23:24;;;;;;;;;;;;;;;;;;2050304;28;20447;-42
2021/12/02 02:24:25;;;;;;;;;;;;;;;;;;2050956;28;19961;-42
2021/12/02 02:25:26;;;;;;;;;;;;;;;;;;2056351;28;19934;-42
2021/12/02 02:26:28;;;;;;;;;;;;;;;;;;2058157;28;19949;-42
2021/12/02 02:27:28;;;;;;;;;;;;;;;;;;2056114;28;20013;-42
2021/12/02 02:28:29;;;;;;;;;;;;;;;;;;2056304;28;20380;-42
2021/12/02 02:29:30;;;;;;;;;;;;;;;;;;2057801;28;20296;-42
2021/12/02 02:30:31;;;;;;;;;;;;;;;;;;2057298;28;19942;-42
2021/12/02 02:31:32;;;;;;;;;;;;;;;;;;2056973;28;20447;-42
2021/12/02 02:32:33;;;;;;;;;;;;;;;;;;2058094;28;20014;-43
2021/12/02 02:33:36;;;;;;;;;;;;;;;;;;2057140;28;19973;-42
2021/12/02 02:34:37;;;;;;;;;;;;;;;;;;2056779;28;19926;-42
2021/12/02 02:35:38;;;;;;;;;;;;;;;;;;2058271;28;19965;-42
2021/12/02 02:36:40;;;;;;;;;;;;;;;;;;2055456;28;19933;-42
2021/12/02 02:37:42;;;;;;;;;;;;;;;;;;2056703;28;20017;-43
2021/12/02 02:38:45;;;;;;;;;;;;;;;;;;2058306;28;19968;-42
2021/12/02 02:39:46;;;;;;;;;;;;;;;;;;2055871;28;20045;-45
2021/12/02 02:40:48;;;;;;;;;;;;;;;;;;2050258;28;19931;-42
2021/12/02 02:41:56;;;;;;;;;;;;;;;;;;2050137;28;20017;-42
2021/12/02 02:42:58;;;;;;;;;;;;;;;;;;2054861;28;20058;-42
2021/12/02 02:44:00;;;;;;;;;;;;;;;;;;2058088;28;20024;-42
2021/12/02 02:45:01;;;;;;;;;;;;;;;;;;2058135;28;20017;-43
2021/12/02 02:46:02;;;;;;;;;;;;;;;;;;2054925;28;19937;-42
2021/12/02 02:47:03;;;;;;;;;;;;;;;;;;2057964;28;19980;-43
2021/12/02 02:48:04;;;;;;;;;;;;;;;;;;2057608;28;19980;-43
2021/12/02 02:49:05;;;;;;;;;;;;;;;;;;2056128;28;19977;-42
2021/12/02 02:50:06;;;;;;;;;;;;;;;;;;2058069;28;20347;-43
2021/12/02 02:51:07;;;;;;;;;;;;;;;;;;2056289;28;20384;-43
2021/12/02 02:52:08;;;;;;;;;;;;;;;;;;2056004;28;19940;-43
2021/12/02 02:53:09;;;;;;;;;;;;;;;;;;2058000;28;20016;-43
2021/12/02 02:54:11;;;;;;;;;;;;;;;;;;2055758;28;20284;-42
2021/12/02 02:55:16;;;;;;;;;;;;;;;;;;2056719;28;20017;-44
2021/12/02 02:56:18;;;;;;;;;;;;;;;;;;2058083;28;20069;-42
2021/12/02 02:57:22;;;;;;;;;;;;;;;;;;2053723;28;20084;-43
2021/12/02 02:58:29;;;;;;;;;;;;;;;;;;2057941;28;20058;-42
2021/12/02 02:59:34;;;;;;;;;;;;;;;;;;2058145;28;19965;-42
2021/12/02 03:00:46;;;;;;;;;;;;;;;;;;2054485;28;20081;-46
2021/12/02 03:01:51;;;;;;;;;;;;;;;;;;2058238;28;19933;-47
2021/12/02 03:02:57;;;;;;;;;;;;;;;;;;2056705;28;19926;-47
2021/12/02 03:04:04;;;;;;;;;;;;;;;;;;2055450;28;19926;-43
2021/12/02 03:05:16;;;;;;;;;;;;;;;;;;2057952;28;20016;-42
2021/12/02 03:06:28;;;;;;;;;;;;;;;;;;2055770;28;19969;-43
2021/12/02 03:07:34;;;;;;;;;;;;;;;;;;2057845;28;20339;-43
2021/12/02 03:08:40;;;;;;;;;;;;;;;;;;2057558;28;19996;-42
2021/12/02 03:09:52;;;;;;;;;;;;;;;;;;2055364;28;19973;-42
2021/12/02 03:10:56;;;;;;;;;;;;;;;;;;2056868;28;20021;-42
2021/12/02 03:12:03;;;;;;;;;;;;;;;;;;2056471;28;20018;-42
2021/12/02 03:13:13;;;;;;;;;;;;;;;;;;2057832;28;19970;-42
2021/12/02 03:14:17;;;;;;;;;;;;;;;;;;2057939;28;19961;-42
2021/12/02 03:16:43;;;;;;;;;;;;;;;;;;2057798;28;20033;-42
2021/12/02 03:17:44;;;;;;;;;;;;;;;;;;2057067;28;20081;-43
2021/12/02 03:18:45;;;;;;;;;;;;;;;;;;2056620;28;19968;-42
2021/12/02 03:19:45;;;;;;;;;;;;;;;;;;2057474;28;19986;-43
2021/12/02 03:20:46;;;;;;;;;;;;;;;;;;2056814;28;19931;-42
2021/12/02 03:21:47;;;;;;;;;;;;;;;;;;2056361;28;19926;-42
2021/12/02 03:22:48;;;;;;;;;;;;;;;;;;2057848;28;19930;-43
2021/12/02 03:23:49;;;;;;;;;;;;;;;;;;2055090;28;19930;-42
2021/12/02 03:24:50;;;;;;;;;;;;;;;;;;2055905;28;19932;-44
2021/12/02 03:25:50;;;;;;;;;;;;;;;;;;2057792;28;19930;-43
2021/12/02 03:26:51;;;;;;;;;;;;;;;;;;2056996;28;19926;-43
2021/12/02 03:27:52;;;;;;;;;;;;;;;;;;2056456;28;19926;-43
2021/12/02 03:28:53;;;;;;;;;;;;;;;;;;2057762;28;19930;-43
2021/12/02 03:29:54;;;;;;;;;;;;;;;;;;2056832;28;20907;-42
2021/12/02 03:30:55;;;;;;;;;;;;;;;;;;2056613;28;19972;-43
2021/12/02 03:31:55;;;;;;;;;;;;;;;;;;2057764;28;20295;-42
2021/12/02 03:32:56;;;;;;;;;;;;;;;;;;2056645;28;19926;-43
2021/12/02 03:33:57;;;;;;;;;;;;;;;;;;2049708;28;19926;-43
2021/12/02 03:34:58;;;;;;;;;;;;;;;;;;2049817;29;20009;-43
2021/12/02 03:35:59;;;;;;;;;;;;;;;;;;2052921;28;19945;-43
2021/12/02 03:37:03;;;;;;;;;;;;;;;;;;2049687;29;19926;-43
2021/12/02 03:38:04;;;;;;;;;;;;;;;;;;2049874;29;19958;-43
2021/12/02 03:39:05;;;;;;;;;;;;;;;;;;2053291;28;20004;-43
2021/12/02 03:40:05;;;;;;;;;;;;;;;;;;2057823;28;19972;-43
2021/12/02 03:41:06;;;;;;;;;;;;;;;;;;2057760;28;20437;-43
2021/12/02 03:42:07;;;;;;;;;;;;;;;;;;2055369;28;19926;-43
2021/12/02 03:43:08;;;;;;;;;;;;;;;;;;2057619;28;19926;-43
2021/12/02 03:44:22;;;;;;;;;;;;;;;;;;2057153;28;19926;-42
2021/12/02 03:45:23;;;;;;;;;;;;;;;;;;2055451;28;19937;-42
2021/12/02 03:46:24;;;;;;;;;;;;;;;;;;2057553;28;20398;-43
2021/12/02 03:47:25;;;;;;;;;;;;;;;;;;2056807;28;20273;-44
2021/12/02 03:48:26;;;;;;;;;;;;;;;;;;2056116;28;19930;-43
2021/12/02 03:49:27;;;;;;;;;;;;;;;;;;2057887;28;20395;-43
2021/12/02 03:50:27;;;;;;;;;;;;;;;;;;2056684;28;19926;-42
2021/12/02 03:51:28;;;;;;;;;;;;;;;;;;2056387;28;19926;-42
2021/12/02 03:52:29;;;;;;;;;;;;;;;;;;2057639;28;19932;-43
2021/12/02 03:53:30;;;;;;;;;;;;;;;;;;2056334;28;20023;-43
2021/12/02 03:54:31;;;;;;;;;;;;;;;;;;2055925;28;20104;-44
2021/12/02 03:55:32;;;;;;;;;;;;;;;;;;2057644;28;19926;-43
2021/12/02 03:56:33;;;;;;;;;;;;;;;;;;2055638;28;19930;-42
2021/12/02 03:57:34;;;;;;;;;;;;;;;;;;2057261;28;20451;-42
2021/12/02 03:58:35;;;;;;;;;;;;;;;;;;2057600;28;19941;-42
2021/12/02 03:59:35;;;;;;;;;;;;;;;;;;2055483;28;19950;-43
2021/12/02 04:00:36;;;;;;;;;;;;;;;;;;2057324;28;19926;-42
2021/12/02 04:01:37;;;;;;;;;;;;;;;;;;2057535;28;19926;-42
2021/12/02 04:02:38;;;;;;;;;;;;;;;;;;2055355;28;19933;-42
2021/12/02 04:03:39;;;;;;;;;;;;;;;;;;2063049;28;19933;-42
2021/12/02 04:04:40;;;;;;;;;;;;;;;;;;2065692;28;19926;-42
2021/12/02 04:05:41;;;;;;;;;;;;;;;;;;2055718;28;20391;-42
2021/12/02 04:06:41;;;;;;;;;;;;;;;;;;2057557;28;19926;-42
2021/12/02 04:07:43;;;;;;;;;;;;;;;;;;2057348;28;20439;-42
2021/12/02 04:08:45;;;;;;;;;;;;;;;;;;2053731;28;20448;-42
2021/12/02 04:09:48;;;;;;;;;;;;;;;;;;2057520;28;20028;-42
2021/12/02 04:10:57;;;;;;;;;;;;;;;;;;2056926;28;20575;-42
2021/12/02 04:12:02;;;;;;;;;;;;;;;;;;2053333;28;19964;-42
2021/12/02 04:13:08;;;;;;;;;;;;;;;;;;2057299;28;20017;-42
2021/12/02 04:14:15;;;;;;;;;;;;;;;;;;2056643;28;19926;-42
2021/12/02 04:15:22;;;;;;;;;;;;;;;;;;2056428;28;19970;-48
2021/12/02 04:16:23;;;;;;;;;;;;;;;;;;2057513;28;20584;-46
2021/12/02 04:17:40;;;;;;;;;;;;;;;;;;2054096;28;19966;-49
2021/12/02 04:18:41;;;;;;;;;;;;;;;;;;2057536;28;20016;-45
2021/12/02 04:19:42;;;;;;;;;;;;;;;;;;2057463;28;19926;-46
2021/12/02 04:20:42;;;;;;;;;;;;;;;;;;2054356;28;19949;-45
2021/12/02 04:21:43;;;;;;;;;;;;;;;;;;2057467;28;19926;-50
2021/12/02 04:22:44;;;;;;;;;;;;;;;;;;2057059;28;19926;-46
2021/12/02 04:23:45;;;;;;;;;;;;;;;;;;2055504;28;19958;-47
2021/12/02 04:24:46;;;;;;;;;;;;;;;;;;2057411;28;19930;-47
2021/12/02 04:25:47;;;;;;;;;;;;;;;;;;2057088;28;19942;-46
2021/12/02 04:26:48;;;;;;;;;;;;;;;;;;2055520;28;20281;-49
2021/12/02 04:27:48;;;;;;;;;;;;;;;;;;2057349;28;19930;-46
2021/12/02 04:28:49;;;;;;;;;;;;;;;;;;2056608;28;19981;-45
2021/12/02 04:29:50;;;;;;;;;;;;;;;;;;2055699;28;20483;-49
2021/12/02 04:30:51;;;;;;;;;;;;;;;;;;2057379;28;19937;-46
2021/12/02 04:31:52;;;;;;;;;;;;;;;;;;2055370;28;20276;-47
2021/12/02 04:32:53;;;;;;;;;;;;;;;;;;2056041;28;19927;-46
2021/12/02 04:33:53;;;;;;;;;;;;;;;;;;2057357;28;20355;-47
2021/12/02 04:34:54;;;;;;;;;;;;;;;;;;2056496;28;19973;-46
2021/12/02 04:35:55;;;;;;;;;;;;;;;;;;2055873;28;20339;-46
2021/12/02 04:36:56;;;;;;;;;;;;;;;;;;2057421;28;19933;-47
2021/12/02 04:37:57;;;;;;;;;;;;;;;;;;2056265;28;20299;-47
2021/12/02 04:38:58;;;;;;;;;;;;;;;;;;2055051;28;19988;-48
2021/12/02 04:39:58;;;;;;;;;;;;;;;;;;2057002;28;19949;-47
2021/12/02 04:40:59;;;;;;;;;;;;;;;;;;2056443;28;19930;-46
2021/12/02 04:42:00;;;;;;;;;;;;;;;;;;2050692;28;20021;-47
2021/12/02 04:43:04;;;;;;;;;;;;;;;;;;2049364;28;20386;-47
2021/12/02 04:44:05;;;;;;;;;;;;;;;;;;2052121;28;19934;-46
2021/12/02 04:45:06;;;;;;;;;;;;;;;;;;2056224;28;20370;-46
2021/12/02 04:46:07;;;;;;;;;;;;;;;;;;2057218;28;20059;-45
2021/12/02 04:47:07;;;;;;;;;;;;;;;;;;2055117;28;20375;-46
2021/12/02 04:48:08;;;;;;;;;;;;;;;;;;2057188;28;19933;-46
2021/12/02 04:49:09;;;;;;;;;;;;;;;;;;2057189;28;19926;-45
2021/12/02 04:50:10;;;;;;;;;;;;;;;;;;2055356;28;19933;-46
2021/12/02 04:51:11;;;;;;;;;;;;;;;;;;2049237;28;19926;-48
2021/12/02 04:52:12;;;;;;;;;;;;;;;;;;2049324;29;19974;-45
2021/12/02 04:53:12;;;;;;;;;;;;;;;;;;2053530;28;19926;-46
2021/12/02 04:54:13;;;;;;;;;;;;;;;;;;2049464;28;19976;-46
2021/12/02 04:55:14;;;;;;;;;;;;;;;;;;2049366;28;20380;-46
2021/12/02 04:56:15;;;;;;;;;;;;;;;;;;2053127;28;19973;-46
2021/12/02 04:57:16;;;;;;;;;;;;;;;;;;2057311;28;19926;-46
2021/12/02 04:58:17;;;;;;;;;;;;;;;;;;2056856;28;19926;-48
2021/12/02 04:59:17;;;;;;;;;;;;;;;;;;2053116;28;19981;-46
2021/12/02 05:00:18;;;;;;;;;;;;;;;;;;2057383;28;19933;-47
2021/12/02 05:01:19;;;;;;;;;;;;;;;;;;2056815;28;19933;-45
2021/12/02 05:02:20;;;;;;;;;;;;;;;;;;2055433;28;20018;-45
2021/12/02 05:03:21;;;;;;;;;;;;;;;;;;2059029;28;19933;-45
2021/12/02 05:04:22;;;;;;;;;;;;;;;;;;2056458;28;19926;-47
2021/12/02 05:05:23;;;;;;;;;;;;;;;;;;2055470;28;19934;-46
2021/12/02 05:06:24;;;;;;;;;;;;;;;;;;2057310;28;19976;-42
2021/12/02 05:07:25;;;;;;;;;;;;;;;;;;2056316;28;19933;-43
2021/12/02 05:08:26;;;;;;;;;;;;;;;;;;2055259;28;19926;-43
2021/12/02 05:09:27;;;;;;;;;;;;;;;;;;2057226;28;19926;-42
2021/12/02 05:10:27;;;;;;;;;;;;;;;;;;2056300;28;19980;-42
2021/12/02 05:11:28;;;;;;;;;;;;;;;;;;2055749;28;19926;-43
2021/12/02 05:12:29;;;;;;;;;;;;;;;;;;2057247;28;20364;-43
2021/12/02 05:13:30;;;;;;;;;;;;;;;;;;2056451;28;19926;-45
2021/12/02 05:14:31;;;;;;;;;;;;;;;;;;2054654;28;20407;-47
2021/12/02 05:15:32;;;;;;;;;;;;;;;;;;2057157;28;20417;-47
2021/12/02 05:16:32;;;;;;;;;;;;;;;;;;2056189;28;19926;-46
2021/12/02 05:17:34;;;;;;;;;;;;;;;;;;2055264;28;20495;-47
2021/12/02 05:18:35;;;;;;;;;;;;;;;;;;2057308;28;19989;-43
2021/12/02 05:19:36;;;;;;;;;;;;;;;;;;2055420;28;19934;-43
2021/12/02 05:20:37;;;;;;;;;;;;;;;;;;2056019;28;19933;-43
2021/12/02 05:21:38;;;;;;;;;;;;;;;;;;2057146;28;19926;-42
2021/12/02 05:22:38;;;;;;;;;;;;;;;;;;2054927;28;19993;-42
2021/12/02 05:23:39;;;;;;;;;;;;;;;;;;2056914;28;20024;-43
2021/12/02 05:24:40;;;;;;;;;;;;;;;;;;2057091;28;19927;-43
2021/12/02 05:25:44;;;;;;;;;;;;;;;;;;2056066;28;20251;-46
2021/12/02 05:26:45;;;;;;;;;;;;;;;;;;2049200;28;19926;-44
2021/12/02 05:27:45;;;;;;;;;;;;;;;;;;2049028;29;19954;-42
2021/12/02 05:28:46;;;;;;;;;;;;;;;;;;2053461;28;19931;-42
2021/12/02 05:29:47;;;;;;;;;;;;;;;;;;2056428;28;19965;-43
2021/12/02 05:30:48;;;;;;;;;;;;;;;;;;2057087;28;20371;-43
2021/12/02 05:31:49;;;;;;;;;;;;;;;;;;2054681;28;19953;-43
2021/12/02 05:32:50;;;;;;;;;;;;;;;;;;2057124;28;20394;-44
2021/12/02 05:33:50;;;;;;;;;;;;;;;;;;2057290;28;20418;-43
2021/12/02 05:34:51;;;;;;;;;;;;;;;;;;2056138;28;20331;-43
2021/12/02 05:35:55;;;;;;;;;;;;;;;;;;2058526;28;19926;-41
2021/12/02 05:36:56;;;;;;;;;;;;;;;;;;2057125;28;20331;-42
2021/12/02 05:37:57;;;;;;;;;;;;;;;;;;2055876;28;19978;-44
2021/12/02 05:38:58;;;;;;;;;;;;;;;;;;2058561;28;20064;-42
2021/12/02 05:39:58;;;;;;;;;;;;;;;;;;2057944;28;19933;-42
2021/12/02 05:40:59;;;;;;;;;;;;;;;;;;2056695;28;19980;-43
2021/12/02 05:42:00;;;;;;;;;;;;;;;;;;2058337;28;20296;-43
2021/12/02 05:43:01;;;;;;;;;;;;;;;;;;2057995;28;19960;-43
2021/12/02 05:44:02;;;;;;;;;;;;;;;;;;2056849;28;19926;-42
2021/12/02 05:45:03;;;;;;;;;;;;;;;;;;2058502;28;20013;-43
2021/12/02 05:46:05;;;;;;;;;;;;;;;;;;2056289;28;20474;-42
2021/12/02 05:47:06;;;;;;;;;;;;;;;;;;2057094;28;19926;-43
2021/12/02 05:48:07;;;;;;;;;;;;;;;;;;2058522;28;19930;-42
2021/12/02 05:49:08;;;;;;;;;;;;;;;;;;2056227;28;19978;-42
2021/12/02 05:50:09;;;;;;;;;;;;;;;;;;2057081;28;20401;-42
2021/12/02 05:51:10;;;;;;;;;;;;;;;;;;2058509;28;19926;-43
2021/12/02 05:52:10;;;;;;;;;;;;;;;;;;2056794;28;21563;-42
2021/12/02 05:53:11;;;;;;;;;;;;;;;;;;2056546;28;19926;-43
2021/12/02 05:54:12;;;;;;;;;;;;;;;;;;2058389;28;19926;-42
2021/12/02 05:55:13;;;;;;;;;;;;;;;;;;2056372;28;19968;-42
2021/12/02 05:56:14;;;;;;;;;;;;;;;;;;2058128;28;19997;-42
2021/12/02 05:57:15;;;;;;;;;;;;;;;;;;2058337;28;19993;-43
2021/12/02 05:58:16;;;;;;;;;;;;;;;;;;2056134;28;19926;-42
2021/12/02 05:59:17;;;;;;;;;;;;;;;;;;2058272;28;19933;-42
2021/12/02 06:00:17;;;;;;;;;;;;;;;;;;2058045;28;20324;-44
2021/12/02 06:01:18;;;;;;;;;;;;;;;;;;2054915;28;19926;-42
2021/12/02 06:02:19;;;;;;;;;;;;;;;;;;2058549;28;19926;-46
2021/12/02 06:03:20;;;;;;;;;;;;;;;;;;2061413;28;20295;-47
2021/12/02 06:04:21;;;;;;;;;;;;;;;;;;2056362;28;19926;-46
2021/12/02 06:05:22;;;;;;;;;;;;;;;;;;2050257;28;19933;-47
2021/12/02 06:06:25;;;;;;;;;;;;;;;;;;2050337;29;19933;-47
2021/12/02 06:07:26;;;;;;;;;;;;;;;;;;2055004;28;19976;-46
2021/12/02 06:08:27;;;;;;;;;;;;;;;;;;2058288;28;19965;-46
2021/12/02 06:09:28;;;;;;;;;;;;;;;;;;2058346;28;20008;-47
2021/12/02 06:10:29;;;;;;;;;;;;;;;;;;2054163;28;19930;-47
2021/12/02 06:11:30;;;;;;;;;;;;;;;;;;2058592;28;19953;-50
2021/12/02 06:12:31;;;;;;;;;;;;;;;;;;2057132;28;19973;-47
2021/12/02 06:13:32;;;;;;;;;;;;;;;;;;2055874;28;19926;-47
2021/12/02 06:14:33;;;;;;;;;;;;;;;;;;2058385;28;20072;-46
2021/12/02 06:15:33;;;;;;;;;;;;;;;;;;2057848;28;19930;-49
2021/12/02 06:16:34;;;;;;;;;;;;;;;;;;2056343;28;19926;-48
2021/12/02 06:17:36;;;;;;;;;;;;;;;;;;2058151;28;19926;-46
2021/12/02 06:18:37;;;;;;;;;;;;;;;;;;2057657;28;19965;-48
2021/12/02 06:19:37;;;;;;;;;;;;;;;;;;2056683;28;19926;-48
2021/12/02 06:20:38;;;;;;;;;;;;;;;;;;2058303;28;20064;-46
2021/12/02 06:21:39;;;;;;;;;;;;;;;;;;2057398;28;19926;-45
2021/12/02 06:22:40;;;;;;;;;;;;;;;;;;2056654;28;19933;-49
2021/12/02 06:23:41;;;;;;;;;;;;;;;;;;2058173;28;19926;-49
2021/12/02 06:24:44;;;;;;;;;;;;;;;;;;2057327;28;20336;-47
2021/12/02 06:25:45;;;;;;;;;;;;;;;;;;2055797;28;19948;-50
2021/12/02 06:26:46;;;;;;;;;;;;;;;;;;2058323;28;19930;-47
2021/12/02 06:27:47;;;;;;;;;;;;;;;;;;2055133;28;19934;-47
2021/12/02 06:28:48;;;;;;;;;;;;;;;;;;2056478;28;19926;-49
2021/12/02 06:29:48;;;;;;;;;;;;;;;;;;2058264;28;20285;-46
2021/12/02 06:30:49;;;;;;;;;;;;;;;;;;2055746;28;19930;-46
2021/12/02 06:31:50;;;;;;;;;;;;;;;;;;2057035;28;19933;-48
2021/12/02 06:32:51;;;;;;;;;;;;;;;;;;2058041;28;20388;-45
2021/12/02 06:33:52;;;;;;;;;;;;;;;;;;2057100;28;19960;-48
2021/12/02 06:34:53;;;;;;;;;;;;;;;;;;2056889;28;19926;-49
2021/12/02 06:35:53;;;;;;;;;;;;;;;;;;2058183;28;19930;-48
2021/12/02 06:36:54;;;;;;;;;;;;;;;;;;2054510;28;19948;-47
2021/12/02 06:37:55;;;;;;;;;;;;;;;;;;2057978;28;20439;-42
2021/12/02 06:38:56;;;;;;;;;;;;;;;;;;2057678;28;19926;-43
2021/12/02 06:39:57;;;;;;;;;;;;;;;;;;2055835;28;19930;-43
2021/12/02 06:40:58;;;;;;;;;;;;;;;;;;2058240;28;20021;-46
2021/12/02 06:41:59;;;;;;;;;;;;;;;;;;2058197;28;19926;-49
2021/12/02 06:43:00;;;;;;;;;;;;;;;;;;2055830;28;19930;-46
2021/12/02 06:44:01;;;;;;;;;;;;;;;;;;2058080;28;19977;-46
2021/12/02 06:45:01;;;;;;;;;;;;;;;;;;2057768;28;19926;-45
2021/12/02 06:46:02;;;;;;;;;;;;;;;;;;2054952;28;20372;-46
2021/12/02 06:47:03;;;;;;;;;;;;;;;;;;2057992;28;19966;-47
2021/12/02 06:48:04;;;;;;;;;;;;;;;;;;2057525;28;19926;-46
2021/12/02 06:49:05;;;;;;;;;;;;;;;;;;2056221;28;19989;-46
2021/12/02 06:50:06;;;;;;;;;;;;;;;;;;2058012;28;20414;-48
2021/12/02 06:51:10;;;;;;;;;;;;;;;;;;2056650;28;20365;-49
2021/12/02 06:52:15;;;;;;;;;;;;;;;;;;2054521;28;19933;-49
2021/12/02 06:53:17;;;;;;;;;;;;;;;;;;2057970;28;20013;-48
2021/12/02 06:54:18;;;;;;;;;;;;;;;;;;2057256;28;19957;-45
2021/12/02 06:55:26;;;;;;;;;;;;;;;;;;2057000;28;19933;-42
2021/12/02 06:56:27;;;;;;;;;;;;;;;;;;2057815;28;19948;-42
2021/12/02 06:57:28;;;;;;;;;;;;;;;;;;2055577;28;20295;-42
2021/12/02 06:58:29;;;;;;;;;;;;;;;;;;2051024;28;19977;-42
2021/12/02 06:59:29;;;;;;;;;;;;;;;;;;2050081;28;19946;-43
2021/12/02 07:00:30;;;;;;;;;;;;;;;;;;2052732;28;19949;-42
2021/12/02 07:01:31;;;;;;;;;;;;;;;;;;2057861;28;19926;-42
2021/12/02 07:02:32;;;;;;;;;;;;;;;;;;2057952;28;19934;-43
2021/12/02 07:03:33;;;;;;;;;;;;;;;;;;2054163;28;19934;-47